Time;durP1;ratioP1;P1;durP2;ratioP2;P2;SDS_P1;SDS_P2;PMS_P1;PMS_P2;Temp;Humidity;BMP_temperature;BMP_pressure;BME280_temperature;BME280_humidity;BME280_pressure;Samples;Min_cycle;Max_cycle;Signal;HPM_P1;HPM_P2
2022/08/26 00:00:43;;;;;;;16.33;7.90;;;;;;;22.48;84.68;101561.56;5035061;28;20186;-77
2022/08/26 00:03:09;;;;;;;12.57;8.17;;;;;;;22.47;85.29;101558.97;5036498;28;20194;-79
2022/08/26 00:05:35;;;;;;;12.13;7.80;;;;;;;22.42;85.22;101563.38;5052031;28;20589;-78
2022/08/26 00:08:01;;;;;;;13.57;7.93;;;;;;;22.43;84.71;101558.13;5049759;28;20235;-78
2022/08/26 00:10:27;;;;;;;11.10;7.77;;;;;;;22.41;84.96;101557.28;5018326;28;20196;-79
2022/08/26 00:12:53;;;;;;;8.40;7.57;;;;;;;22.38;85.45;101565.16;5052314;28;20194;-78
2022/08/26 00:15:20;;;;;;;12.90;8.20;;;;;;;22.35;85.41;101555.63;5051925;28;20566;-78
2022/08/26 00:17:46;;;;;;;18.73;8.20;;;;;;;22.34;85.77;101556.53;5029454;28;20326;-77
2022/08/26 00:20:19;;;;;;;13.13;8.17;;;;;;;22.31;85.76;101555.72;5034144;28;20227;-81
2022/08/26 00:22:46;;;;;;;14.63;7.97;;;;;;;22.33;85.56;101555.72;5048653;28;20185;-79
2022/08/26 00:25:12;;;;;;;11.33;8.00;;;;;;;22.29;85.54;101560.13;5049890;28;20231;-76
2022/08/26 00:27:38;;;;;;;12.53;7.57;;;;;;;22.24;86.22;101554.97;5046964;28;20218;-76
2022/08/26 00:30:08;;;;;;;10.73;7.43;;;;;;;22.25;85.89;101553.22;5046573;28;20190;-77
2022/08/26 00:32:34;;;;;;;11.57;7.83;;;;;;;22.23;85.82;101559.38;5032747;28;20188;-77
2022/08/26 00:35:00;;;;;;;13.33;8.03;;;;;;;22.20;86.43;101552.44;5049193;28;20205;-77
2022/08/26 00:37:26;;;;;;;15.07;8.33;;;;;;;22.18;86.40;101549.88;5052929;28;20197;-77
2022/08/26 00:39:53;;;;;;;12.10;8.00;;;;;;;22.18;86.18;101547.25;5017467;28;20614;-77
2022/08/26 00:42:19;;;;;;;12.23;7.50;;;;;;;22.17;85.74;101555.97;5036432;28;20246;-77
2022/08/26 00:44:44;;;;;;;13.10;7.73;;;;;;;22.16;86.42;101548.16;5051526;28;20276;-77
2022/08/26 00:47:23;;;;;;;16.83;8.13;;;;;;;22.14;86.22;101544.69;5050807;28;20774;-76
2022/08/26 00:49:50;;;;;;;12.67;7.63;;;;;;;22.08;86.80;101550.91;5043949;28;20250;-77
2022/08/26 00:52:19;;;;;;;14.80;8.33;;;;;;;22.11;86.33;101547.38;5033177;28;20679;-76
2022/08/26 00:55:18;;;;;;;10.10;7.53;;;;;;;22.10;86.37;101546.50;5027913;28;20186;-77
2022/08/26 00:57:44;;;;;;;13.17;7.33;;;;;;;22.10;86.32;101549.13;5014611;28;20226;-77
2022/08/26 01:00:20;;;;;;;12.47;8.13;;;;;;;22.06;87.09;101549.22;5009216;28;20623;-77
2022/08/26 01:02:47;;;;;;;12.57;7.73;;;;;;;22.05;86.82;101552.69;5048554;28;20182;-77
2022/08/26 01:05:15;;;;;;;10.27;7.77;;;;;;;22.02;87.37;101547.53;5049183;28;20212;-77
2022/08/26 01:07:49;;;;;;;15.90;8.27;;;;;;;21.99;87.26;101544.97;5033085;28;20289;-77
2022/08/26 01:10:21;;;;;;;16.37;8.50;;;;;;;21.98;87.11;101546.69;5044579;28;20651;-77
2022/08/26 01:12:51;;;;;;;11.90;7.80;;;;;;;21.99;86.66;101552.78;5016051;28;20185;-78
2022/08/26 01:15:21;;;;;;;15.30;7.97;;;;;;;21.97;87.24;101546.75;5027488;28;20190;-78
2022/08/26 01:17:48;;;;;;;10.20;7.57;;;;;;;21.96;87.30;101545.88;5016432;28;20232;-77
2022/08/26 01:20:26;;;;;;;12.47;8.13;;;;;;;21.93;87.30;101542.47;5046722;28;20189;-77
2022/08/26 01:23:00;;;;;;;14.10;7.27;;;;;;;21.92;87.65;101543.34;5031264;28;20675;-78
2022/08/26 01:25:30;;;;;;;16.43;7.90;;;;;;;21.90;87.87;101545.09;5059699;23;20569;-70
2022/08/26 01:27:57;;;;;;;12.17;8.00;;;;;;;21.87;87.97;101542.53;5060374;28;20200;-71
2022/08/26 01:30:25;;;;;;;12.93;8.07;;;;;;;21.88;87.88;101544.28;5048359;28;20202;-70
2022/08/26 01:32:53;;;;;;;13.60;8.20;;;;;;;21.86;87.59;101539.06;5038267;28;20750;-71
2022/08/26 01:35:19;;;;;;;17.30;8.10;;;;;;;21.85;88.28;101544.31;5039349;28;20206;-71
2022/08/26 01:37:48;;;;;;;15.60;8.63;;;;;;;21.84;88.30;101550.44;5054189;28;20209;-70
2022/08/26 01:40:20;;;;;;;16.07;8.30;;;;;;;21.79;88.53;101547.03;5044728;28;20280;-71
2022/08/26 01:42:47;;;;;;;14.03;7.60;;;;;;;21.81;88.14;101542.63;5048472;28;20186;-71
2022/08/26 01:45:19;;;;;;;15.63;7.50;;;;;;;21.80;87.87;101543.53;5041008;28;20206;-74
2022/08/26 01:47:47;;;;;;;12.20;8.33;;;;;;;21.77;88.58;101540.94;5039727;28;20186;-73
2022/08/26 01:50:17;;;;;;;11.40;7.97;;;;;;;21.74;89.05;101547.06;5038348;28;20202;-71
2022/08/26 01:52:46;;;;;;;15.73;8.37;;;;;;;21.71;88.69;101546.28;5040578;28;20194;-70
2022/08/26 01:55:14;;;;;;;14.00;8.27;;;;;;;21.67;89.06;101542.81;5047530;28;20229;-70
2022/08/26 01:57:44;;;;;;;9.90;8.23;;;;;;;21.67;89.42;101541.94;5044497;28;20958;-71
2022/08/26 02:00:13;;;;;;;12.17;7.87;;;;;;;21.68;88.87;101543.66;5038892;28;20210;-73
2022/08/26 02:03:15;;;;;;;12.77;8.53;;;;;;;21.66;89.16;101545.44;5041040;28;20523;-74
2022/08/26 02:05:36;;;;;;;16.03;8.47;;;;;;;21.62;89.24;101539.41;5039215;28;20210;-70
2022/08/26 02:08:03;;;;;;;11.70;8.67;;;;;;;21.58;89.68;101539.47;5018116;28;20201;-72
2022/08/26 02:10:28;;;;;;;12.97;8.53;;;;;;;21.58;89.58;101539.47;5040901;28;20679;-71
2022/08/26 02:12:54;;;;;;;11.37;8.20;;;;;;;21.56;89.67;101533.44;5021136;28;20241;-71
2022/08/26 02:15:19;;;;;;;14.43;8.87;;;;;;;21.53;89.69;101534.34;5052346;28;20247;-70
2022/08/26 02:17:46;;;;;;;19.00;8.10;;;;;;;21.52;89.77;101535.19;5019894;28;20198;-71
2022/08/26 02:20:15;;;;;;;12.63;8.70;;;;;;;21.48;90.07;101538.75;5042031;28;20209;-70
2022/08/26 02:22:41;;;;;;;11.07;8.27;;;;;;;21.50;90.18;101544.78;5038588;28;20184;-71
2022/08/26 02:25:23;;;;;;;16.17;8.27;;;;;;;21.48;89.98;101541.38;5054165;28;20296;-71
2022/08/26 02:27:49;;;;;;;13.73;9.07;;;;;;;21.47;89.77;101539.63;5039352;28;20709;-73
2022/08/26 02:30:25;;;;;;;16.93;8.67;;;;;;;21.46;89.78;101540.50;5040764;28;20213;-70
2022/08/26 02:32:50;;;;;;;12.00;8.50;;;;;;;21.44;89.65;101539.69;5043604;28;20939;-70
2022/08/26 02:35:19;;;;;;;14.30;7.97;;;;;;;21.42;90.14;101544.03;5048261;28;20269;-70
2022/08/26 02:37:45;;;;;;;11.60;8.63;;;;;;;21.38;90.43;101538.91;5063712;28;20221;-69
2022/08/26 02:40:13;;;;;;;14.33;9.13;;;;;;;21.35;90.48;101533.72;5048070;28;20296;-70
2022/08/26 02:42:39;;;;;;;14.60;9.03;;;;;;;21.32;90.90;101529.41;5037955;28;20205;-69
2022/08/26 02:45:05;;;;;;;16.53;9.53;;;;;;;21.30;90.86;101528.56;5042915;28;20597;-70
2022/08/26 02:47:32;;;;;;;15.20;9.23;;;;;;;21.25;91.11;101525.19;5027132;28;20226;-69
2022/08/26 02:49:57;;;;;;;14.80;8.63;;;;;;;21.25;90.94;101526.91;5043907;28;20252;-72
2022/08/26 02:52:24;;;;;;;12.43;9.40;;;;;;;21.21;91.37;101523.50;5042212;28;20676;-69
2022/08/26 02:54:50;;;;;;;13.33;9.23;;;;;;;21.16;91.82;101524.41;5050609;28;20182;-69
2022/08/26 02:57:16;;;;;;;14.43;9.03;;;;;;;21.18;91.75;101522.63;5045365;28;20328;-69
2022/08/26 02:59:42;;;;;;;14.00;9.07;;;;;;;21.14;91.82;101524.44;5031354;28;20228;-72
2022/08/26 03:02:09;;;;;;;14.50;8.60;;;;;;;21.12;91.63;101518.41;5051034;28;20182;-70
2022/08/26 03:04:35;;;;;;;15.43;9.63;;;;;;;21.09;92.14;101517.56;5049591;28;20568;-69
2022/08/26 03:07:01;;;;;;;11.63;9.40;;;;;;;21.06;91.80;101515.84;5044658;28;20696;-70
2022/08/26 03:09:27;;;;;;;13.20;8.90;;;;;;;21.03;92.57;101513.28;5037434;28;20221;-69
2022/08/26 03:11:54;;;;;;;18.53;10.47;;;;;;;21.02;92.32;101519.41;5048602;28;20190;-72
2022/08/26 03:14:20;;;;;;;13.40;9.23;;;;;;;20.98;92.61;101504.69;5044090;28;20193;-72
2022/08/26 03:16:46;;;;;;;13.03;9.40;;;;;;;20.95;92.50;101509.91;5044597;28;20239;-72
2022/08/26 03:19:11;;;;;;;14.03;9.60;;;;;;;20.93;92.02;101508.22;5039295;28;20272;-70
2022/08/26 03:21:38;;;;;;;17.73;9.40;;;;;;;20.92;92.70;101501.28;5044031;28;20182;-71
2022/08/26 03:24:03;;;;;;;13.13;9.77;;;;;;;20.92;92.06;101501.28;5052603;28;20190;-69
2022/08/26 03:26:29;;;;;;;13.30;9.83;;;;;;;20.85;93.13;101496.97;5051280;28;20220;-73
2022/08/26 03:31:39;;;;;;;13.77;9.53;;;;;;;20.85;92.99;101504.78;5026119;28;20656;-73
2022/08/26 03:34:05;;;;;;;15.93;9.40;;;;;;;20.83;92.85;101501.38;5043470;28;20181;-72
2022/08/26 03:36:30;;;;;;;17.23;10.57;;;;;;;20.79;93.08;101502.28;5047004;28;20181;-70
2022/08/26 03:38:56;;;;;;;13.73;9.73;;;;;;;20.76;92.93;101508.38;5045554;28;20250;-69
2022/08/26 03:41:22;;;;;;;16.57;9.73;;;;;;;20.77;92.86;101501.44;5045124;28;20208;-72
2022/08/26 03:43:49;;;;;;;14.27;9.40;;;;;;;20.73;92.82;101502.34;5050706;28;20644;-72
2022/08/26 03:46:16;;;;;;;16.67;9.80;;;;;;;20.69;93.22;101503.25;5043858;28;20213;-69
2022/08/26 03:48:41;;;;;;;14.43;9.97;;;;;;;20.71;93.47;101502.38;5043321;28;20824;-70
2022/08/26 03:51:17;;;;;;;13.27;9.80;;;;;;;20.68;93.79;101502.38;5039530;28;20208;-70
2022/08/26 03:53:43;;;;;;;16.97;10.17;;;;;;;20.64;93.32;101505.06;5050486;28;20189;-69
2022/08/26 03:56:09;;;;;;;18.23;9.80;;;;;;;20.63;93.54;101504.19;5024479;28;20194;-70
2022/08/26 03:58:36;;;;;;;16.67;9.47;;;;;;;20.65;93.25;101501.56;5025093;28;20638;-71
2022/08/26 04:01:02;;;;;;;17.67;10.07;;;;;;;20.62;93.45;101501.59;5044543;28;20213;-69
2022/08/26 04:06:12;;;;;;;17.20;10.10;;;;;;;20.59;93.67;101501.66;5040061;28;20953;-71
2022/08/26 04:08:38;;;;;;;16.30;10.03;;;;;;;20.60;93.69;101499.00;5040066;28;20285;-70
2022/08/26 04:11:04;;;;;;;15.57;10.33;;;;;;;20.59;94.16;101499.88;5046957;28;20726;-69
2022/08/26 04:13:31;;;;;;;16.07;10.53;;;;;;;20.61;94.00;101497.28;5045306;28;20547;-69
2022/08/26 04:15:57;;;;;;;16.67;10.57;;;;;;;20.59;94.27;101493.84;5040182;28;20181;-69
2022/08/26 04:18:22;;;;;;;13.37;10.37;;;;;;;20.58;94.77;101490.38;5046507;28;20773;-69
2022/08/26 04:20:49;;;;;;;15.67;10.30;;;;;;;20.58;94.84;101494.69;5041732;28;20667;-73
2022/08/26 04:23:15;;;;;;;16.60;11.13;;;;;;;20.59;94.50;101496.44;5046066;28;20194;-70
2022/08/26 04:25:42;;;;;;;18.63;10.67;;;;;;;20.59;94.56;101496.44;5039007;28;20218;-71
2022/08/26 04:28:08;;;;;;;20.13;11.07;;;;;;;20.58;94.53;101487.75;5022303;28;20189;-72
2022/08/26 04:30:36;;;;;;;17.33;11.33;;;;;;;20.62;94.66;101488.56;5053170;28;20225;-70
2022/08/26 04:33:03;;;;;;;16.23;11.13;;;;;;;20.64;94.92;101484.22;5042106;28;20277;-70
2022/08/26 04:35:29;;;;;;;19.17;11.70;;;;;;;20.62;95.27;101483.38;5046439;28;20583;-73
2022/08/26 04:37:55;;;;;;;18.23;11.27;;;;;;;20.63;95.36;101477.31;5057519;28;20770;-72
2022/08/26 04:40:21;;;;;;;21.47;11.23;;;;;;;20.64;94.94;101487.69;5025803;28;20285;-70
2022/08/26 04:42:47;;;;;;;14.57;11.80;;;;;;;20.64;95.40;101479.88;5045946;28;20556;-69
2022/08/26 04:45:13;;;;;;;17.27;11.50;;;;;;;20.65;95.50;101479.03;5047662;28;20680;-70
2022/08/26 04:47:38;;;;;;;18.73;11.60;;;;;;;20.68;95.01;101478.97;5047280;28;20193;-70
2022/08/26 04:50:05;;;;;;;21.37;11.70;;;;;;;20.70;95.32;101478.94;5049682;28;20221;-73
2022/08/26 04:52:31;;;;;;;16.23;11.80;;;;;;;20.73;94.86;101484.13;5049249;28;20227;-69
2022/08/26 04:54:56;;;;;;;14.43;11.27;;;;;;;20.75;95.13;101484.97;5046983;28;20653;-70
2022/08/26 04:57:22;;;;;;;16.20;11.70;;;;;;;20.73;95.14;101484.97;5050147;28;20190;-72
2022/08/26 04:59:47;;;;;;;17.77;11.90;;;;;;;20.74;95.52;101486.72;5049957;28;20213;-69
2022/08/26 05:02:13;;;;;;;18.67;12.03;;;;;;;20.78;94.70;101490.97;5044845;28;20198;-69
2022/08/26 05:04:42;;;;;;;20.23;12.07;;;;;;;20.82;94.44;101489.22;5041698;28;20193;-70
2022/08/26 05:07:08;;;;;;;23.87;12.97;;;;;;;20.83;94.66;101490.94;5046187;28;20244;-70
2022/08/26 05:09:33;;;;;;;17.50;12.33;;;;;;;20.87;94.44;101495.25;5038407;28;20232;-69
2022/08/26 05:11:59;;;;;;;19.60;12.53;;;;;;;20.89;94.43;101494.34;5047456;28;20648;-70
2022/08/26 05:14:24;;;;;;;18.23;12.20;;;;;;;20.89;94.76;101491.75;5038317;28;20224;-72
2022/08/26 05:16:51;;;;;;;16.53;12.40;;;;;;;20.97;93.98;101492.53;5049934;28;20186;-70
2022/08/26 05:19:16;;;;;;;17.80;11.83;;;;;;;21.00;93.84;101496.84;5038369;28;20548;-69
2022/08/26 05:21:43;;;;;;;20.17;11.73;;;;;;;21.06;93.39;101494.16;5024279;28;20193;-69
2022/08/26 05:24:11;;;;;;;18.70;11.90;;;;;;;21.14;92.71;101502.75;5039867;28;20559;-69
2022/08/26 05:26:36;;;;;;;19.47;11.43;;;;;;;21.20;92.77;101502.66;5041707;28;20669;-69
2022/08/26 05:29:02;;;;;;;16.13;10.87;;;;;;;21.28;92.65;101503.44;5045375;28;20239;-72
2022/08/26 05:31:30;;;;;;;17.47;11.50;;;;;;;21.36;92.26;101494.59;5024168;28;20225;-70
2022/08/26 05:33:57;;;;;;;15.63;11.07;;;;;;;21.40;91.83;101492.81;5050085;28;20197;-69
2022/08/26 05:36:28;;;;;;;20.43;11.70;;;;;;;21.32;92.03;101495.53;5045985;28;20220;-72
2022/08/26 05:38:54;;;;;;;18.73;11.63;;;;;;;21.26;92.74;101495.63;5050553;28;20201;-71
2022/08/26 05:41:27;;;;;;;19.67;11.80;;;;;;;21.36;92.20;101492.00;5042052;28;20213;-72
2022/08/26 05:43:54;;;;;;;17.97;12.10;;;;;;;21.47;91.56;101492.69;5025961;28;20196;-70
2022/08/26 05:46:20;;;;;;;16.40;11.93;;;;;;;21.52;91.46;101495.25;5040699;28;20268;-74
2022/08/26 05:48:45;;;;;;;18.33;11.73;;;;;;;21.61;90.90;101495.94;5044704;28;20194;-71
2022/08/26 05:51:12;;;;;;;17.43;11.03;;;;;;;21.68;90.29;101497.59;5039661;28;20605;-73
2022/08/26 05:53:40;;;;;;;14.03;10.60;;;;;;;21.80;90.14;101504.41;5036843;28;20649;-71
2022/08/26 05:56:07;;;;;;;15.83;11.03;;;;;;;21.77;89.88;101497.50;5007070;28;20186;-74
2022/08/26 05:58:35;;;;;;;14.60;11.47;;;;;;;21.74;89.99;101491.47;5046179;28;20193;-69
2022/08/26 06:01:05;;;;;;;14.23;11.80;;;;;;;21.82;89.59;101502.63;5020901;28;20245;-70
2022/08/26 06:03:34;;;;;;;16.30;12.30;;;;;;;21.79;89.56;101502.69;5039348;28;20186;-70
2022/08/26 06:06:09;;;;;;;17.80;12.10;;;;;;;21.87;89.21;101504.28;5047762;28;20942;-69
2022/08/26 06:08:35;;;;;;;16.77;11.60;;;;;;;21.87;89.25;101509.50;5039779;28;20185;-73
2022/08/26 06:11:04;;;;;;;12.83;11.20;;;;;;;21.97;88.80;101503.22;5037944;28;20615;-70
2022/08/26 06:13:31;;;;;;;18.67;11.90;;;;;;;22.19;88.46;101502.00;5021156;28;20767;-70
2022/08/26 06:15:58;;;;;;;14.80;10.73;;;;;;;22.35;87.66;101505.19;5041447;28;20178;-72
2022/08/26 06:18:29;;;;;;;16.37;11.60;;;;;;;22.45;86.69;101496.34;5042949;28;20186;-71
2022/08/26 06:20:55;;;;;;;16.70;11.37;;;;;;;22.50;86.55;101497.09;5023547;28;20910;-69
2022/08/26 06:26:05;;;;;;;17.13;11.13;;;;;;;22.74;85.41;101493.16;5039128;28;20752;-70
2022/08/26 06:28:31;;;;;;;16.43;11.13;;;;;;;22.72;85.58;101494.94;5030607;28;20280;-70
2022/08/26 06:30:57;;;;;;;17.00;11.93;;;;;;;22.79;85.12;101496.56;5046453;28;20309;-70
2022/08/26 06:33:23;;;;;;;17.83;12.43;;;;;;;22.85;85.19;101501.66;5056310;28;20267;-70
2022/08/26 06:35:49;;;;;;;14.57;11.63;;;;;;;22.99;84.31;101499.59;5051674;28;21467;-70
2022/08/26 06:38:16;;;;;;;16.87;12.43;;;;;;;23.02;83.69;101508.22;5060559;28;20196;-71
2022/08/26 06:40:49;;;;;;;16.87;12.73;;;;;;;23.08;83.19;101507.25;5025027;28;20234;-69
2022/08/26 06:43:17;;;;;;;16.73;12.13;;;;;;;23.30;82.61;101496.31;5040046;28;20558;-70
2022/08/26 06:45:46;;;;;;;15.00;11.60;;;;;;;23.36;82.08;101495.34;5027458;28;20213;-72
2022/08/26 06:48:14;;;;;;;18.60;12.50;;;;;;;23.29;82.02;101494.63;5044861;28;20213;-69
2022/08/26 06:50:41;;;;;;;17.00;12.33;;;;;;;23.47;81.55;101488.97;5041459;28;20584;-73
2022/08/26 06:53:08;;;;;;;21.27;12.67;;;;;;;23.60;80.96;101487.81;5044209;28;20244;-69
2022/08/26 06:55:40;;;;;;;19.60;12.27;;;;;;;23.66;80.85;101490.25;5041467;28;20183;-70
2022/08/26 06:58:08;;;;;;;17.60;11.83;;;;;;;23.76;81.07;101493.53;5045084;28;20200;-70
2022/08/26 07:00:35;;;;;;;15.20;11.07;;;;;;;24.05;80.45;101489.34;5050559;28;20216;-70
2022/08/26 07:03:01;;;;;;;17.95;11.02;;;;;;;24.23;79.36;101493.22;5049354;28;20601;-73
2022/08/26 07:05:26;;;;;;;19.35;12.07;;;;;;;24.37;78.48;101493.72;5041193;28;20245;-73
2022/08/26 07:07:52;;;;;;;17.15;11.27;;;;;;;24.44;77.18;101493.50;5048903;28;20288;-70
2022/08/26 07:10:18;;;;;;;17.65;12.60;;;;;;;24.60;77.55;101499.22;5022645;28;20209;-70
2022/08/26 07:12:43;;;;;;;17.70;11.57;;;;;;;24.74;75.91;101497.97;5035899;28;20194;-70
2022/08/26 07:15:10;;;;;;;15.35;11.13;;;;;;;24.90;75.86;101493.97;5033755;28;20185;-70
2022/08/26 07:17:36;;;;;;;16.52;11.88;;;;;;;25.01;75.39;101494.53;5033650;28;20193;-70
2022/08/26 07:20:03;;;;;;;13.52;11.35;;;;;;;24.99;75.28;101487.59;5043109;28;20218;-71
2022/08/26 07:22:28;;;;;;;14.73;11.65;;;;;;;24.97;74.61;101500.78;5052443;28;20210;-70
2022/08/26 07:24:53;;;;;;;19.52;12.20;;;;;;;25.08;74.35;101487.34;5047248;28;20756;-78
2022/08/26 07:27:19;;;;;;;17.33;11.73;;;;;;;25.22;73.74;101493.03;5043817;28;20221;-72
2022/08/26 07:29:45;;;;;;;14.30;11.05;;;;;;;25.35;74.59;101497.03;5044921;28;20217;-73
2022/08/26 07:32:13;;;;;;;15.27;11.00;;;;;;;25.50;72.59;101497.41;5050266;28;20282;-70
2022/08/26 07:34:39;;;;;;;14.20;10.90;;;;;;;25.67;71.98;101494.25;5051409;28;20178;-71
2022/08/26 07:37:05;;;;;;;16.38;11.32;;;;;;;25.68;72.41;101488.97;5051995;28;20239;-72
2022/08/26 07:39:31;;;;;;;17.98;11.40;;;;;;;25.95;71.46;101485.47;5053130;28;20218;-70
2022/08/26 07:41:58;;;;;;;16.92;11.38;;;;;;;26.00;72.10;101488.81;5051021;28;20209;-70
2022/08/26 07:44:25;;;;;;;16.10;11.50;;;;;;;26.19;70.92;101489.91;5041354;28;20186;-73
2022/08/26 07:46:51;;;;;;;14.38;10.00;;;;;;;26.34;69.64;101486.72;5042553;28;20221;-69
2022/08/26 07:49:17;;;;;;;16.63;10.35;;;;;;;26.48;69.52;101486.25;5044352;28;20675;-70
2022/08/26 07:51:43;;;;;;;18.70;11.57;;;;;;;26.50;68.68;101479.16;5045273;28;20715;-70
2022/08/26 07:54:08;;;;;;;18.17;10.93;;;;;;;26.68;67.98;101489.06;5042488;28;20190;-71
2022/08/26 07:56:34;;;;;;;16.50;10.75;;;;;;;26.79;67.31;101493.00;5043429;28;20202;-77
2022/08/26 07:59:00;;;;;;;11.65;10.45;;;;;;;26.83;66.88;101480.59;5039038;28;20201;-70
2022/08/26 08:01:28;;;;;;;16.45;11.10;;;;;;;26.91;66.49;101487.31;5044667;28;20209;-70
2022/08/26 08:03:54;;;;;;;13.63;10.07;;;;;;;27.25;66.52;101482.50;5030526;28;20559;-70
2022/08/26 08:06:21;;;;;;;13.13;9.55;;;;;;;27.30;65.98;101480.53;5043220;28;20201;-71
2022/08/26 08:08:47;;;;;;;13.30;10.50;;;;;;;27.42;65.11;101480.06;5025786;28;20186;-70
2022/08/26 08:11:13;;;;;;;15.20;10.43;;;;;;;27.54;65.79;101479.56;5044046;28;20257;-69
2022/08/26 08:13:39;;;;;;;15.90;9.73;;;;;;;27.80;65.06;101474.13;5025546;28;20252;-70
2022/08/26 08:16:05;;;;;;;13.82;9.95;;;;;;;27.86;63.76;101473.03;4979377;28;20227;-70
2022/08/26 08:18:31;;;;;;;12.07;9.30;;;;;;;28.18;63.04;101477.81;4982681;28;20184;-69
2022/08/26 08:20:56;;;;;;;14.15;9.52;;;;;;;28.07;61.85;101474.75;4989465;28;20246;-69
2022/08/26 08:23:22;;;;;;;16.58;10.05;;;;;;;27.95;60.92;101470.84;4988662;28;20235;-71
2022/08/26 08:25:48;;;;;;;11.82;8.98;;;;;;;28.16;61.96;101471.72;4989849;28;20829;-69
2022/08/26 08:28:14;;;;;;;14.27;10.05;;;;;;;27.94;61.85;101473.53;4989021;28;20580;-72
2022/08/26 08:30:40;;;;;;;14.82;9.63;;;;;;;28.12;61.53;101468.38;4990123;28;20234;-71
2022/08/26 08:33:06;;;;;;;13.73;10.10;;;;;;;28.21;61.09;101469.75;4989817;28;20219;-72
2022/08/26 08:35:33;;;;;;;12.68;9.95;;;;;;;28.54;60.91;101477.06;4989653;28;20223;-72
2022/08/26 08:37:59;;;;;;;12.13;9.55;;;;;;;28.80;59.23;101482.06;4993702;28;20191;-71
2022/08/26 08:40:26;;;;;;;11.20;8.60;;;;;;;28.84;60.13;101477.47;4990663;28;20215;-71
2022/08/26 08:43:13;;;;;;;12.23;9.13;;;;;;;29.08;59.39;101477.25;4987152;28;20696;-70
2022/08/26 08:45:50;;;;;;;12.45;9.63;;;;;;;28.57;59.64;101481.34;4987128;28;20207;-71
2022/08/26 08:48:25;;;;;;;13.82;9.35;;;;;;;28.79;58.78;101484.75;4987202;28;20542;-73
2022/08/26 08:51:02;;;;;;;13.98;9.48;;;;;;;28.98;58.63;101490.94;4986220;28;20211;-73
2022/08/26 08:53:31;;;;;;;13.60;9.48;;;;;;;29.29;57.46;101485.94;4986405;28;20195;-70
2022/08/26 08:56:10;;;;;;;11.85;9.50;;;;;;;29.54;57.59;101482.06;4989400;28;20547;-71
2022/08/26 08:59:14;;;;;;;14.20;9.95;;;;;;;29.62;56.82;101481.72;4984104;28;20271;-69
2022/08/26 09:01:43;;;;;;;14.15;9.63;;;;;;;29.55;57.14;101488.16;4971920;28;20239;-69
2022/08/26 09:04:23;;;;;;;16.80;8.90;;;;;;;29.85;55.76;101481.44;4985833;28;20274;-70
2022/08/26 09:06:52;;;;;;;14.70;8.32;;;;;;;30.42;55.11;101475.00;4988611;28;20253;-71
2022/08/26 09:09:29;;;;;;;14.65;9.27;;;;;;;30.09;53.75;101481.06;4986078;28;20275;-69
2022/08/26 09:11:57;;;;;;;14.77;8.32;;;;;;;30.64;53.42;101476.41;4987886;28;20626;-70
2022/08/26 09:14:24;;;;;;;15.73;9.57;;;;;;;30.67;52.17;101471.00;4974044;28;20190;-70
2022/08/26 09:17:07;;;;;;;12.77;9.05;;;;;;;30.16;53.92;101475.47;4987863;28;20199;-72
2022/08/26 09:19:48;;;;;;;11.93;8.52;;;;;;;30.74;52.85;101468.88;4989887;28;20220;-69
2022/08/26 09:22:28;;;;;;;13.27;8.00;;;;;;;30.71;51.92;101475.16;4989124;28;20203;-71
2022/08/26 09:24:55;;;;;;;13.77;8.82;;;;;;;31.16;51.65;101463.88;4988587;28;20199;-70
2022/08/26 09:27:40;;;;;;;13.00;8.32;;;;;;;31.53;49.82;101450.31;4985999;28;20196;-73
2022/08/26 09:30:08;;;;;;;14.68;8.52;;;;;;;31.48;49.53;101457.66;4984879;28;20215;-76
2022/08/26 09:32:34;;;;;;;16.42;8.15;;;;;;;31.75;49.50;101464.03;4989418;28;20219;-72
2022/08/26 09:35:11;;;;;;;13.43;8.55;;;;;;;31.94;48.56;101456.72;4985411;28;20188;-73
2022/08/26 09:37:43;;;;;;;11.65;8.48;;;;;;;31.53;49.65;101450.31;4993554;28;20810;-72
2022/08/26 09:40:11;;;;;;;14.02;8.52;;;;;;;31.48;49.27;101460.31;4986733;28;20603;-72
2022/08/26 09:42:37;;;;;;;19.70;8.52;;;;;;;31.80;48.72;101446.91;4987343;28;20201;-72
2022/08/26 09:45:09;;;;;;;15.25;8.77;;;;;;;31.92;48.77;101445.34;4984836;28;20567;-71
2022/08/26 09:47:46;;;;;;;15.35;8.27;;;;;;;32.06;48.03;101443.59;4986674;28;20212;-72
2022/08/26 09:50:47;;;;;;;13.35;8.23;;;;;;;32.39;48.68;101430.09;4987347;28;20286;-71
2022/08/26 09:53:22;;;;;;;12.05;7.95;;;;;;;32.84;47.48;101429.94;4970472;28;20240;-72
2022/08/26 09:55:50;;;;;;;13.90;7.90;;;;;;;33.17;46.57;101433.06;4981881;28;20265;-77
2022/08/26 09:58:32;;;;;;;14.13;8.05;;;;;;;33.13;46.16;101434.22;4972797;28;20227;-74
2022/08/26 10:01:00;;;;;;;14.23;8.52;;;;;;;33.39;46.67;101430.75;4979881;28;20682;-73
2022/08/26 10:03:29;;;;;;;13.45;7.90;;;;;;;33.62;45.14;101430.97;4987059;28;20187;-72
2022/08/26 10:05:57;;;;;;;11.85;7.80;;;;;;;33.77;45.07;101432.59;4970377;28;20215;-76
2022/08/26 10:08:37;;;;;;;13.55;7.82;;;;;;;34.22;44.04;101440.13;4973377;28;20274;-72
2022/08/26 10:11:10;;;;;;;16.45;8.23;;;;;;;33.96;44.22;101433.06;4984637;28;20223;-72
2022/08/26 10:13:41;;;;;;;15.10;8.05;;;;;;;34.34;41.80;101436.63;4985865;28;20210;-72
2022/08/26 10:16:17;;;;;;;13.18;8.43;;;;;;;33.22;43.61;101431.84;4975980;28;20238;-73
2022/08/26 10:18:55;;;;;;;20.42;9.32;;;;;;;33.30;44.84;101418.09;4984934;28;20189;-72
2022/08/26 10:21:29;;;;;;;19.13;8.07;;;;;;;33.31;44.56;101417.13;4984577;28;20218;-71
2022/08/26 10:23:58;;;;;;;14.80;7.78;;;;;;;33.79;42.74;101414.69;4984821;28;20200;-71
2022/08/26 10:26:52;;;;;;;21.90;8.90;;;;;;;33.89;42.64;101414.97;4983890;28;20212;-73
2022/08/26 10:29:23;;;;;;;16.73;8.13;;;;;;;33.55;43.60;101408.38;4983600;28;20242;-71
2022/08/26 10:32:01;;;;;;;17.73;7.70;;;;;;;34.05;42.78;101399.66;4981228;28;20196;-71
2022/08/26 10:34:27;;;;;;;16.27;7.55;;;;;;;34.92;40.85;101401.41;4983434;28;20561;-72
2022/08/26 10:36:56;;;;;;;12.27;7.43;;;;;;;35.30;40.36;101394.13;4992273;28;20247;-73
2022/08/26 10:39:30;;;;;;;17.80;7.75;;;;;;;34.91;41.09;101387.25;4988665;28;20279;-72
2022/08/26 10:42:03;;;;;;;14.95;7.80;;;;;;;34.57;41.64;101392.44;4985079;28;20210;-71
2022/08/26 10:44:36;;;;;;;17.85;7.78;;;;;;;34.17;41.46;101390.84;4983471;28;20185;-70
2022/08/26 10:47:29;;;;;;;18.75;7.43;;;;;;;34.79;40.97;101395.28;4979776;28;20735;-70
2022/08/26 10:49:56;;;;;;;15.68;6.97;;;;;;;35.08;40.31;101386.03;4977416;28;20294;-72
2022/08/26 10:52:34;;;;;;;18.42;7.63;;;;;;;35.01;39.07;101388.28;4976091;28;20232;-70
2022/08/26 10:55:18;;;;;;;19.35;7.30;;;;;;;35.33;39.65;101381.47;4987819;28;20727;-70
2022/08/26 10:58:16;;;;;;;15.00;7.00;;;;;;;35.85;38.74;101371.22;4978096;28;20211;-70
2022/08/26 11:03:50;;;;;;;16.25;6.97;;;;;;;36.51;37.46;101359.75;4982263;28;20219;-70
2022/08/26 11:06:29;;;;;;;16.83;7.05;;;;;;;36.48;37.68;101357.31;4985746;28;20734;-72
2022/08/26 11:08:57;;;;;;;19.38;7.72;;;;;;;36.73;36.71;101355.25;4981241;28;20203;-72
2022/08/26 11:11:38;;;;;;;15.50;7.10;;;;;;;36.64;37.16;101350.63;4985868;28;20219;-71
2022/08/26 11:14:04;;;;;;;17.90;7.03;;;;;;;36.66;36.45;101345.19;4987698;28;20220;-72
2022/08/26 11:16:42;;;;;;;17.45;6.90;;;;;;;36.79;36.39;101344.06;4983026;28;20224;-72
2022/08/26 11:19:10;;;;;;;18.90;7.35;;;;;;;37.12;35.36;101340.47;4985068;28;20592;-71
2022/08/26 11:22:10;;;;;;;18.70;6.80;;;;;;;37.01;35.17;101337.78;4991067;28;20215;-73
2022/08/26 11:25:09;;;;;;;14.35;6.40;;;;;;;37.36;35.32;101327.72;4988251;28;20666;-74
2022/08/26 11:27:35;;;;;;;13.50;6.45;;;;;;;37.28;34.92;101318.66;4966927;28;20204;-73
2022/08/26 11:30:02;;;;;;;19.40;6.43;;;;;;;37.08;35.26;101315.81;5002009;28;20298;-72
2022/08/26 11:32:40;;;;;;;15.75;6.38;;;;;;;35.39;35.69;101311.69;4985423;28;20719;-73
2022/08/26 11:35:05;;;;;;;18.95;6.25;;;;;;;35.74;36.27;101312.53;4987732;28;20195;-74